Time;durP1;ratioP1;P1;durP2;ratioP2;P2;SDS_P1;SDS_P2;PMS_P1;PMS_P2;Temp;Humidity;BMP_temperature;BMP_pressure;BME280_temperature;BME280_humidity;BME280_pressure;Samples;Min_cycle;Max_cycle;Signal;HPM_P1;HPM_P2
2022/01/01 00:00:18;;;;;;;20.90;11.87;;;;;;;;;;4862116;29;20254;-87
2022/01/01 00:02:44;;;;;;;22.73;15.20;;;;;;;;;;4860716;29;20277;-87
2022/01/01 00:05:11;;;;;;;17.50;12.13;;;9.40;99.90;;;;;;4860696;29;20182;-87
2022/01/01 00:07:41;;;;;;;23.77;13.97;;;;;;;;;;4862110;29;20632;-87
2022/01/01 00:10:08;;;;;;;18.30;12.27;;;9.50;99.90;;;;;;4862103;29;20202;-86
2022/01/01 00:12:34;;;;;;;59.83;33.70;;;;;;;;;;4861840;29;20210;-88
2022/01/01 00:15:00;;;;;;;32.77;20.23;;;;;;;;;;4860725;29;20190;-87
2022/01/01 00:17:27;;;;;;;25.70;16.77;;;;;;;;;;4860524;29;20277;-86
2022/01/01 00:19:53;;;;;;;46.00;29.63;;;;;;;;;;4860252;29;20243;-86
2022/01/01 00:22:19;;;;;;;23.80;15.20;;;;;;;;;;4845351;29;20194;-88
2022/01/01 00:24:45;;;;;;;27.37;14.70;;;;;;;;;;4860387;29;20198;-88
2022/01/01 00:27:11;;;;;;;22.43;13.87;;;;;;;;;;4861522;29;20636;-88
2022/01/01 00:29:37;;;;;;;43.40;28.87;;;;;;;;;;4861367;29;20261;-87
2022/01/01 00:32:04;;;;;;;18.40;12.73;;;9.50;99.90;;;;;;4860423;29;20187;-87
2022/01/01 00:34:30;;;;;;;21.17;11.33;;;;;;;;;;4860164;29;20258;-87
2022/01/01 00:36:56;;;;;;;17.17;11.47;;;;;;;;;;4861368;29;20189;-88
2022/01/01 00:39:22;;;;;;;20.00;12.53;;;;;;;;;;4860522;29;20190;-88
2022/01/01 00:41:48;;;;;;;23.90;12.63;;;;;;;;;;4860806;29;20551;-88
2022/01/01 00:44:14;;;;;;;19.60;13.10;;;9.80;99.90;;;;;;4860028;29;20195;-88
2022/01/01 00:46:40;;;;;;;25.97;13.10;;;;;;;;;;4859699;29;20195;-87
2022/01/01 00:49:06;;;;;;;22.87;15.53;;;;;;;;;;4861175;29;20187;-88
2022/01/01 00:51:32;;;;;;;20.10;12.97;;;;;;;;;;4844760;29;20198;-87
2022/01/01 00:53:58;;;;;;;15.97;10.63;;;;;;;;;;4860999;29;20298;-88
2022/01/01 00:56:25;;;;;;;23.17;12.97;;;;;;;;;;4859901;29;20191;-88
2022/01/01 00:58:51;;;;;;;22.80;13.00;;;;;;;;;;4861071;29;20182;-88
2022/01/01 01:01:16;;;;;;;17.43;11.67;;;9.70;99.90;;;;;;4859978;29;20201;-88
2022/01/01 01:03:42;;;;;;;20.20;12.43;;;9.90;99.90;;;;;;4859452;29;20281;-88
2022/01/01 01:06:10;;;;;;;18.00;10.80;;;;;;;;;;4859697;29;20191;-88
2022/01/01 01:08:36;;;;;;;21.27;12.37;;;;;;;;;;4860709;29;20189;-88
2022/01/01 01:11:07;;;;;;;18.67;12.17;;;;;;;;;;4860999;29;20231;-88
2022/01/01 01:13:33;;;;;;;19.73;12.70;;;;;;;;;;4860737;29;20202;-87
2022/01/01 01:16:00;;;;;;;21.53;12.87;;;;;;;;;;4859393;29;20187;-87
2022/01/01 01:18:26;;;;;;;19.57;12.00;;;;;;;;;;4860864;29;20193;-87
2022/01/01 01:20:52;;;;;;;22.37;13.60;;;;;;;;;;4859709;29;20186;-88
2022/01/01 01:23:18;;;;;;;17.27;11.27;;;;;;;;;;4860700;29;20268;-87
2022/01/01 01:25:44;;;;;;;23.70;11.93;;;;;;;;;;4860508;29;20209;-88
2022/01/01 01:28:13;;;;;;;22.13;12.80;;;9.60;99.90;;;;;;4860558;29;20222;-88
2022/01/01 01:30:39;;;;;;;21.20;12.43;;;;;;;;;;4858956;29;20225;-88
2022/01/01 01:33:06;;;;;;;17.33;9.90;;;9.50;99.90;;;;;;4859535;29;20222;-88
2022/01/01 01:35:32;;;;;;;21.10;11.17;;;;;;;;;;4860706;29;20194;-88
2022/01/01 01:37:59;;;;;;;20.77;11.90;;;;;;;;;;4860359;29;20218;-88
2022/01/01 01:40:25;;;;;;;21.30;12.60;;;;;;;;;;4857827;29;20213;-88
2022/01/01 01:42:51;;;;;;;21.23;12.87;;;;;;;;;;4859192;29;20198;-88
2022/01/01 01:45:19;;;;;;;22.13;11.97;;;9.80;99.90;;;;;;4860718;29;20198;-87
2022/01/01 01:47:46;;;;;;;19.20;11.97;;;9.50;99.90;;;;;;4843956;29;20199;-88
2022/01/01 01:50:13;;;;;;;23.93;12.57;;;9.50;99.90;;;;;;4860336;29;20178;-88
2022/01/01 01:52:42;;;;;;;28.20;15.30;;;9.50;99.90;;;;;;4859777;29;20241;-88
2022/01/01 01:55:09;;;;;;;21.53;12.80;;;9.50;99.90;;;;;;4859668;29;20317;-88
2022/01/01 01:57:36;;;;;;;24.87;14.17;;;9.60;99.90;;;;;;4860001;29;20186;-88
2022/01/01 02:00:07;;;;;;;21.57;13.27;;;9.50;99.90;;;;;;4868580;29;20190;-88
2022/01/01 02:02:34;;;;;;;21.67;13.10;;;;;;;;;;4882075;29;20182;-88
2022/01/01 02:05:00;;;;;;;26.97;14.53;;;;;;;;;;4882920;29;20197;-87
2022/01/01 02:07:26;;;;;;;23.10;14.83;;;9.60;99.90;;;;;;4879614;29;20195;-88
2022/01/01 02:09:52;;;;;;;21.83;12.20;;;;;;;;;;4853392;29;20195;-88
2022/01/01 02:12:18;;;;;;;18.77;11.43;;;10.00;99.90;;;;;;4859739;29;20234;-88
2022/01/01 02:15:10;;;;;;;19.53;11.13;;;9.40;99.90;;;;;;4858610;29;20190;-88
2022/01/01 02:17:36;;;;;;;19.70;12.40;;;;;;;;;;4860061;29;20246;-87
2022/01/01 02:20:12;;;;;;;17.73;10.80;;;9.30;99.90;;;;;;4858607;29;20640;-88
2022/01/01 02:22:46;;;;;;;18.97;11.43;;;9.60;99.90;;;;;;4859851;29;20269;-88
2022/01/01 02:25:13;;;;;;;20.47;11.23;;;9.60;99.90;;;;;;4860201;29;20182;-87
2022/01/01 02:27:39;;;;;;;20.77;11.63;;;;;;;;;;4859003;29;20186;-88
2022/01/01 02:30:07;;;;;;;15.20;9.20;;;9.40;99.90;;;;;;4858428;29;20192;-87
2022/01/01 02:32:33;;;;;;;21.67;11.00;;;;;;;;;;4843917;29;20195;-88
2022/01/01 02:34:59;;;;;;;17.10;10.83;;;;;;;;;;4860058;29;20679;-88
2022/01/01 02:37:25;;;;;;;14.17;9.17;;;;;;;;;;4859753;29;20321;-87
2022/01/01 02:39:51;;;;;;;18.23;10.27;;;;;;;;;;4858320;29;20195;-87
2022/01/01 02:42:21;;;;;;;17.10;10.83;;;;;;;;;;4859973;29;20190;-88
2022/01/01 02:44:50;;;;;;;21.07;12.50;;;;;;;;;;4859938;29;20227;-87
2022/01/01 02:47:16;;;;;;;20.03;11.13;;;;;;;;;;4859844;29;20270;-87
2022/01/01 02:49:42;;;;;;;16.67;10.33;;;;;;;;;;4843378;29;20289;-87
2022/01/01 02:52:08;;;;;;;18.67;10.50;;;;;;;;;;4858472;29;20186;-87
2022/01/01 02:54:33;;;;;;;21.07;11.70;;;10.00;99.90;;;;;;4858221;29;20306;-88
2022/01/01 02:57:00;;;;;;;17.60;9.43;;;;;;;;;;4858545;29;20676;-88
2022/01/01 02:59:26;;;;;;;15.27;8.97;;;;;;;;;;4858325;29;20182;-88
2022/01/01 03:01:52;;;;;;;13.33;9.07;;;;;;;;;;4858197;29;20554;-88
2022/01/01 03:04:18;;;;;;;14.97;9.20;;;;;;;;;;4858173;29;20289;-88
2022/01/01 03:06:45;;;;;;;20.33;10.70;;;;;;;;;;4862042;29;20226;-88
2022/01/01 03:09:11;;;;;;;16.33;10.27;;;;;;;;;;4862918;29;20640;-88
2022/01/01 03:11:37;;;;;;;14.13;9.97;;;;;;;;;;4862020;29;20198;-88
2022/01/01 03:14:03;;;;;;;11.67;7.53;;;;;;;;;;4861681;29;20218;-88
2022/01/01 03:16:31;;;;;;;15.00;10.20;;;;;;;;;;4846583;29;20190;-88
2022/01/01 03:18:57;;;;;;;14.93;9.83;;;;;;;;;;4862525;29;20189;-88
2022/01/01 03:21:23;;;;;;;15.90;10.20;;;;;;;;;;4862892;29;20186;-89
2022/01/01 03:23:49;;;;;;;15.17;9.27;;;;;;;;;;4862427;29;20191;-88
2022/01/01 03:26:15;;;;;;;14.87;9.53;;;;;;;;;;4861647;29;20235;-88
2022/01/01 03:28:41;;;;;;;15.27;9.53;;;;;;;;;;4861391;29;20194;-88
2022/01/01 03:31:07;;;;;;;13.17;8.97;;;9.90;99.90;;;;;;4861232;29;20294;-88
2022/01/01 03:33:33;;;;;;;15.67;9.67;;;;;;;;;;4862539;29;20686;-88
2022/01/01 03:35:59;;;;;;;11.73;8.33;;;;;;;;;;4860991;29;20213;-88
2022/01/01 03:38:25;;;;;;;13.03;9.23;;;;;;;;;;4861319;29;20628;-88
2022/01/01 03:40:51;;;;;;;16.40;9.20;;;;;;;;;;4862515;29;20199;-87
2022/01/01 03:43:17;;;;;;;15.73;9.83;;;9.50;99.90;;;;;;4862536;29;20190;-88
2022/01/01 03:45:43;;;;;;;16.20;10.53;;;;;;;;;;4861363;29;20186;-88
2022/01/01 03:48:09;;;;;;;13.93;9.23;;;;;;;;;;4863236;29;20319;-87
2022/01/01 03:50:34;;;;;;;15.03;10.10;;;9.70;99.90;;;;;;4861323;29;20191;-88
2022/01/01 03:53:00;;;;;;;15.50;10.13;;;;;;;;;;4862064;29;20226;-88
2022/01/01 03:55:27;;;;;;;19.97;10.27;;;;;;;;;;4862124;29;20250;-88
2022/01/01 03:57:53;;;;;;;18.70;10.90;;;;;;;;;;4861889;29;20624;-88
2022/01/01 04:00:19;;;;;;;14.20;9.70;;;;;;;;;;4863125;29;20182;-88
2022/01/01 04:02:45;;;;;;;16.60;11.63;;;;;;;;;;4862263;29;20199;-87
2022/01/01 04:05:11;;;;;;;16.77;11.77;;;;;;;;;;4860932;29;20221;-89
2022/01/01 04:07:37;;;;;;;18.30;11.63;;;;;;;;;;4862040;29;20206;-88
2022/01/01 04:10:03;;;;;;;20.23;12.23;;;;;;;;;;4860801;29;20233;-88
2022/01/01 04:12:29;;;;;;;17.43;11.67;;;;;;;;;;4862061;29;20186;-88
2022/01/01 04:14:57;;;;;;;14.07;11.63;;;9.80;99.90;;;;;;4860571;29;20198;-88
2022/01/01 04:17:23;;;;;;;17.63;11.47;;;;;;;;;;4860245;29;20183;-89
2022/01/01 04:19:49;;;;;;;16.17;11.20;;;;;;;;;;4861876;29;20269;-87
2022/01/01 04:22:16;;;;;;;14.13;11.20;;;9.40;99.90;;;;;;4860903;29;20286;-88
2022/01/01 04:24:42;;;;;;;19.70;11.47;;;9.40;99.90;;;;;;4860971;29;20660;-89
2022/01/01 04:27:08;;;;;;;16.67;10.70;;;;;;;;;;4860534;29;20664;-89
2022/01/01 04:29:34;;;;;;;15.20;10.90;;;;;;;;;;4845370;29;20283;-88
2022/01/01 04:32:01;;;;;;;15.93;11.50;;;9.40;99.90;;;;;;4861355;29;20290;-88
2022/01/01 04:34:27;;;;;;;16.13;9.80;;;9.40;99.90;;;;;;4861804;29;20619;-88
2022/01/01 04:37:12;;;;;;;14.37;9.13;;;;;;;;;;4860438;29;20277;-88
2022/01/01 04:39:38;;;;;;;11.37;8.90;;;;;;;;;;4862080;29;20178;-89
2022/01/01 04:42:04;;;;;;;15.23;9.83;;;9.10;99.90;;;;;;4861842;29;20183;-88
2022/01/01 04:44:30;;;;;;;15.77;9.90;;;;;;;;;;4860521;29;20190;-88
2022/01/01 04:46:56;;;;;;;13.90;8.67;;;;;;;;;;4861530;29;20226;-88
2022/01/01 04:49:22;;;;;;;13.20;8.57;;;;;;;;;;4862098;29;20193;-88
2022/01/01 04:51:49;;;;;;;11.97;8.37;;;9.20;99.90;;;;;;4862234;29;20198;-88
2022/01/01 04:54:16;;;;;;;12.30;8.63;;;;;;;;;;4860388;29;20322;-87
2022/01/01 04:56:44;;;;;;;9.73;6.90;;;9.20;99.90;;;;;;4868361;29;20159;-87
2022/01/01 04:59:14;;;;;;;12.83;8.23;;;9.20;99.90;;;;;;4873989;29;20187;-86
2022/01/01 05:01:40;;;;;;;12.77;7.73;;;9.10;99.90;;;;;;4869334;29;20199;-86
2022/01/01 05:04:09;;;;;;;11.63;7.57;;;9.10;99.90;;;;;;4872599;29;20195;-87
2022/01/01 05:06:35;;;;;;;12.30;7.60;;;;;;;;;;4885541;29;20170;-87
2022/01/01 05:09:01;;;;;;;12.40;7.37;;;;;;;;;;4885707;29;20203;-87
2022/01/01 05:11:28;;;;;;;13.10;8.37;;;;;;;;;;4885433;29;20167;-86
2022/01/01 05:13:54;;;;;;;9.63;7.50;;;;;;;;;;4885803;29;20202;-87
2022/01/01 05:16:20;;;;;;;13.50;7.20;;;;;;;;;;4885685;29;20177;-87
2022/01/01 05:18:47;;;;;;;12.17;8.00;;;9.20;99.90;;;;;;4885255;29;20170;-88
2022/01/01 05:21:13;;;;;;;11.00;7.40;;;9.30;99.90;;;;;;4884815;29;20178;-88
2022/01/01 05:23:43;;;;;;;8.97;6.20;;;9.50;99.90;;;;;;4884750;29;20178;-89
2022/01/01 05:26:09;;;;;;;12.17;6.97;;;;;;;;;;4884597;29;20207;-89
2022/01/01 05:28:35;;;;;;;11.90;7.00;;;;;;;;;;4883657;29;20171;-88
2022/01/01 05:31:01;;;;;;;10.07;6.47;;;;;;;;;;4871028;29;20229;-88
2022/01/01 05:33:27;;;;;;;11.33;7.13;;;;;;;;;;4859406;29;20222;-89
2022/01/01 05:35:53;;;;;;;9.80;6.37;;;;;;;;;;4859312;29;20193;-88
2022/01/01 05:38:19;;;;;;;11.40;6.93;;;8.70;99.90;;;;;;4859042;29;20190;-89
2022/01/01 05:40:44;;;;;;;11.27;6.83;;;8.90;99.90;;;;;;4859530;29;20195;-90
2022/01/01 05:43:13;;;;;;;11.40;7.17;;;;;;;;;;4859025;29;20583;-91
2022/01/01 05:45:42;;;;;;;13.10;7.60;;;8.90;99.90;;;;;;4860573;29;20214;-89
2022/01/01 05:48:08;;;;;;;10.50;6.33;;;;;;;;;;4860514;29;20182;-89
2022/01/01 05:50:35;;;;;;;8.60;6.60;;;;;;;;;;4859281;29;20556;-89
2022/01/01 05:53:01;;;;;;;9.23;6.07;;;;;;;;;;4859136;29;20626;-90
2022/01/01 05:55:27;;;;;;;11.50;7.17;;;;;;;;;;4859034;29;20336;-89
2022/01/01 05:57:52;;;;;;;12.73;7.33;;;8.60;99.90;;;;;;4860309;29;20273;-89
2022/01/01 06:00:19;;;;;;;10.30;6.63;;;;;;;;;;4860232;29;20191;-89
2022/01/01 06:02:45;;;;;;;12.47;7.30;;;;;;;;;;4860390;29;20191;-92
2022/01/01 06:05:11;;;;;;;13.60;8.17;;;8.90;99.90;;;;;;4858644;29;20214;-90
2022/01/01 06:07:38;;;;;;;11.33;7.63;;;;;;;;;;4858848;29;20187;-90
2022/01/01 06:10:05;;;;;;;11.33;7.43;;;9.30;99.90;;;;;;4859626;29;20571;-89
2022/01/01 06:12:31;;;;;;;14.13;8.80;;;;;;;;;;4858948;29;20270;-89
2022/01/01 06:14:57;;;;;;;16.03;9.77;;;8.90;99.90;;;;;;4861032;29;20648;-90
2022/01/01 06:17:23;;;;;;;15.23;9.43;;;;;;;;;;4865428;29;20679;-87
2022/01/01 06:19:49;;;;;;;17.73;10.00;;;8.60;99.90;;;;;;4860008;29;20186;-88
2022/01/01 06:22:15;;;;;;;20.40;11.50;;;;;;;;;;4859871;29;20189;-89
2022/01/01 06:24:41;;;;;;;15.53;10.93;;;;;;;;;;4859805;29;20210;-90
2022/01/01 06:27:06;;;;;;;20.17;12.27;;;8.80;99.90;;;;;;4858592;29;20190;-91
2022/01/01 06:29:32;;;;;;;21.77;12.93;;;;;;;;;;4858774;29;20190;-90
2022/01/01 06:31:58;;;;;;;20.37;12.43;;;;;;;;;;4859791;29;20640;-90
2022/01/01 06:34:24;;;;;;;23.87;12.60;;;;;;;;;;4858480;29;20257;-90
2022/01/01 06:36:51;;;;;;;18.27;11.73;;;;;;;;;;4859853;29;20343;-89
2022/01/01 06:39:17;;;;;;;31.67;14.07;;;8.70;99.90;;;;;;4857994;29;20661;-89
2022/01/01 06:41:44;;;;;;;22.63;12.83;;;;;;;;;;4861447;29;20178;-89
2022/01/01 06:44:10;;;;;;;20.33;13.23;;;;;;;;;;4861793;29;20197;-87
2022/01/01 06:46:36;;;;;;;18.17;11.30;;;;;;;;;;4861715;29;20218;-87
2022/01/01 06:49:02;;;;;;;18.47;11.03;;;;;;;;;;4861728;29;20186;-89
2022/01/01 06:51:28;;;;;;;21.93;11.27;;;;;;;;;;4862814;29;20331;-88
2022/01/01 06:53:54;;;;;;;16.80;9.37;;;;;;;;;;4862578;29;20249;-89
2022/01/01 06:56:20;;;;;;;17.40;10.43;;;;;;;;;;4861683;29;20265;-89
2022/01/01 06:58:46;;;;;;;20.77;10.40;;;;;;;;;;4861991;29;20186;-89
2022/01/01 07:01:12;;;;;;;10.23;7.00;;;;;;;;;;4863024;29;20632;-89
2022/01/01 07:03:38;;;;;;;10.23;6.93;;;;;;;;;;4861713;29;20876;-89
2022/01/01 07:06:04;;;;;;;9.13;6.13;;;;;;;;;;4860150;29;20182;-89
2022/01/01 07:08:30;;;;;;;11.20;6.60;;;;;;;;;;4862684;29;20186;-89
2022/01/01 07:10:56;;;;;;;10.30;5.67;;;;;;;;;;4864675;29;20226;-90
2022/01/01 07:13:22;;;;;;;9.57;5.27;;;;;;;;;;4863433;29;20687;-90
2022/01/01 07:15:48;;;;;;;8.80;5.33;;;;;;;;;;4862282;29;20190;-86
2022/01/01 07:18:14;;;;;;;7.73;5.53;;;;;;;;;;4863674;29;20204;-88
2022/01/01 07:20:40;;;;;;;7.07;5.20;;;;;;;;;;4863760;29;20242;-89
2022/01/01 07:23:06;;;;;;;9.00;5.23;;;;;;;;;;4862726;29;20194;-91
2022/01/01 07:25:32;;;;;;;8.00;5.57;;;;;;;;;;4862658;29;20194;-90
2022/01/01 07:27:58;;;;;;;11.63;5.30;;;;;;;;;;4863908;29;20633;-87
2022/01/01 07:30:24;;;;;;;5.80;4.27;;;;;;;;;;4863425;29;20231;-87
2022/01/01 07:32:51;;;;;;;7.03;4.10;;;;;;;;;;4864312;29;20229;-87
2022/01/01 07:35:17;;;;;;;5.30;3.60;;;8.60;99.90;;;;;;4863471;29;20246;-88
2022/01/01 07:37:43;;;;;;;4.77;3.13;;;;;;;;;;4861532;29;20187;-88
2022/01/01 07:40:12;;;;;;;5.50;3.77;;;8.40;99.90;;;;;;4862410;29;20645;-88
2022/01/01 07:42:38;;;;;;;5.53;4.07;;;;;;;;;;4863473;29;20270;-89
2022/01/01 07:45:05;;;;;;;8.40;5.30;;;8.30;99.90;;;;;;4862918;29;20183;-88
2022/01/01 07:47:31;;;;;;;9.37;5.87;;;;;;;;;;4862842;29;20202;-88
2022/01/01 07:49:57;;;;;;;12.77;7.80;;;;;;;;;;4863155;29;20191;-88
2022/01/01 07:52:23;;;;;;;12.27;8.47;;;;;;;;;;4861060;29;20273;-88
2022/01/01 07:54:50;;;;;;;10.73;8.63;;;;;;;;;;4861247;29;20708;-87
2022/01/01 07:57:16;;;;;;;16.00;9.67;;;;;;;;;;4862863;29;20191;-89
2022/01/01 07:59:42;;;;;;;16.37;9.83;;;;;;;;;;4863167;29;20266;-87
2022/01/01 08:02:08;;;;;;;14.80;10.03;;;8.40;99.90;;;;;;4861443;29;20644;-87
2022/01/01 08:04:35;;;;;;;16.40;11.63;;;;;;;;;;4862736;29;20217;-87
2022/01/01 08:07:04;;;;;;;15.67;10.70;;;;;;;;;;4862836;29;20183;-87
2022/01/01 08:09:30;;;;;;;14.27;9.43;;;;;;;;;;4861698;29;20197;-86
2022/01/01 08:11:55;;;;;;;13.40;9.23;;;8.30;99.90;;;;;;4862979;29;20191;-86
2022/01/01 08:14:22;;;;;;;13.53;8.80;;;;;;;;;;4861396;29;20816;-86
2022/01/01 08:16:58;;;;;;;12.87;9.07;;;8.60;99.90;;;;;;4862596;29;20218;-87
2022/01/01 08:19:24;;;;;;;12.07;8.20;;;;;;;;;;4862385;29;20186;-87
2022/01/01 08:21:50;;;;;;;8.17;6.77;;;;;;;;;;4861477;29;20640;-86
2022/01/01 08:24:16;;;;;;;13.23;9.30;;;;;;;;;;4861435;29;20266;-87
2022/01/01 08:26:42;;;;;;;10.77;8.53;;;;;;;;;;4862164;29;20202;-88
2022/01/01 08:29:08;;;;;;;10.97;7.47;;;;;;;;;;4862801;29;20193;-87
2022/01/01 08:31:33;;;;;;;10.27;7.90;;;8.80;99.90;;;;;;4862723;29;20199;-87
2022/01/01 08:33:59;;;;;;;14.03;8.47;;;;;;;;;;4861212;29;20263;-87
2022/01/01 08:36:25;;;;;;;8.73;7.10;;;8.20;99.90;;;;;;4861820;29;20263;-87
2022/01/01 08:38:51;;;;;;;10.10;7.37;;;;;;;;;;4861909;29;20198;-86
2022/01/01 08:41:17;;;;;;;10.23;7.07;;;;;;;;;;4862944;29;20246;-87
2022/01/01 08:43:43;;;;;;;9.57;7.30;;;;;;;;;;4861035;29;20263;-87
2022/01/01 08:46:10;;;;;;;11.67;8.37;;;;;;;;;;4862562;29;20237;-87
2022/01/01 08:48:36;;;;;;;13.70;9.43;;;;;;;;;;4862537;29;20308;-86
2022/01/01 08:51:12;;;;;;;17.70;11.60;;;8.70;99.90;;;;;;4861984;29;20179;-86
2022/01/01 08:53:38;;;;;;;17.87;12.10;;;;;;;;;;4861864;29;20269;-85
2022/01/01 08:56:07;;;;;;;19.20;12.90;;;;;;;;;;4861985;29;20700;-88
2022/01/01 08:58:34;;;;;;;18.43;12.03;;;;;;;;;;4859723;29;20270;-89
2022/01/01 09:01:00;;;;;;;16.60;11.07;;;;;;;;;;4861981;29;20214;-85
2022/01/01 09:03:26;;;;;;;16.90;10.87;;;;;;;;;;4858802;29;20290;-87
2022/01/01 09:05:52;;;;;;;17.50;10.70;;;;;;;;;;4859333;29;20242;-86
2022/01/01 09:08:18;;;;;;;15.63;9.90;;;;;;;;;;4858537;29;20199;-87
2022/01/01 09:10:44;;;;;;;13.83;9.07;;;;;;;;;;4856343;29;20289;-86
2022/01/01 09:13:10;;;;;;;16.07;10.03;;;;;;;;;;4857292;29;20218;-87
2022/01/01 09:15:36;;;;;;;16.07;9.97;;;;;;;;;;4857540;29;20198;-87
2022/01/01 09:18:02;;;;;;;15.43;9.70;;;;;;;;;;4854204;29;20235;-88
2022/01/01 09:20:28;;;;;;;12.80;8.93;;;;;;;;;;4859581;29;20731;-86
2022/01/01 09:22:54;;;;;;;16.67;10.00;;;;;;;;;;4861409;29;20652;-88
2022/01/01 09:25:20;;;;;;;16.43;10.13;;;;;;;;;;4850940;29;20653;-86
2022/01/01 09:27:46;;;;;;;15.47;9.53;;;8.50;99.90;;;;;;4853911;29;20294;-86
2022/01/01 09:30:12;;;;;;;14.17;9.33;;;8.50;99.90;;;;;;4854872;29;20246;-86
2022/01/01 09:32:38;;;;;;;14.30;8.63;;;;;;;;;;4854895;29;20274;-86
2022/01/01 09:35:05;;;;;;;15.13;9.27;;;8.80;99.90;;;;;;4857643;29;20200;-86
2022/01/01 09:37:32;;;;;;;18.67;11.10;;;;;;;;;;4854493;29;20199;-87
2022/01/01 09:39:59;;;;;;;17.07;10.90;;;8.90;99.90;;;;;;4855943;29;20195;-86
2022/01/01 09:42:25;;;;;;;12.73;8.13;;;;;;;;;;4855796;29;20197;-86
2022/01/01 09:44:53;;;;;;;12.63;8.17;;;9.10;99.90;;;;;;4859890;29;20225;-87
2022/01/01 09:47:20;;;;;;;10.03;6.67;;;;;;;;;;4853024;29;20290;-86
2022/01/01 09:49:46;;;;;;;11.37;7.27;;;;;;;;;;4860501;29;20186;-86
2022/01/01 09:52:16;;;;;;;7.67;5.37;;;9.40;99.90;;;;;;4857206;29;20205;-87
2022/01/01 09:54:43;;;;;;;9.83;6.80;;;;;;;;;;4856755;29;20241;-87
2022/01/01 09:57:10;;;;;;;8.60;6.47;;;;;;;;;;4856887;29;20247;-87
2022/01/01 09:59:38;;;;;;;11.57;7.10;;;9.30;99.90;;;;;;4857546;29;20199;-87
2022/01/01 10:02:04;;;;;;;10.57;6.97;;;;;;;;;;4857019;29;20218;-88
2022/01/01 10:04:50;;;;;;;12.70;6.93;;;9.40;99.90;;;;;;4840944;29;20231;-87
2022/01/01 10:07:16;;;;;;;11.43;7.43;;;;;;;;;;4854494;29;20266;-87
2022/01/01 10:09:42;;;;;;;9.33;7.10;;;9.30;99.90;;;;;;4853993;29;20182;-86
2022/01/01 10:12:10;;;;;;;10.97;7.67;;;9.30;99.90;;;;;;4868432;29;20190;-88
2022/01/01 10:14:36;;;;;;;11.60;8.77;;;;;;;;;;4855720;29;20585;-87
2022/01/01 10:17:18;;;;;;;12.33;8.53;;;9.20;99.90;;;;;;4856479;29;20210;-87
2022/01/01 10:19:46;;;;;;;14.30;8.07;;;9.20;99.90;;;;;;4854295;29;20250;-85
2022/01/01 10:22:14;;;;;;;11.13;7.03;;;;;;;;;;4857081;29;20194;-86
2022/01/01 10:27:46;;;;;;;12.83;8.03;;;9.40;99.90;;;;;;4855933;29;20246;-84
2022/01/01 10:30:44;;;;;;;15.30;7.67;;;9.60;99.90;;;;;;4871618;29;20197;-85
2022/01/01 10:33:18;;;;;;;13.43;9.13;;;10.10;99.90;;;;;;4851470;29;20691;-84
2022/01/01 10:35:50;;;;;;;14.50;9.10;;;9.40;99.90;;;;;;4854511;29;20686;-84
2022/01/01 10:38:25;;;;;;;12.97;8.23;;;9.00;99.90;;;;;;4853315;29;20214;-84
2022/01/01 10:41:09;;;;;;;10.13;7.57;;;8.90;99.90;;;;;;4862627;29;20203;-83
2022/01/01 10:43:42;;;;;;;12.50;7.40;;;9.20;99.90;;;;;;4863720;29;20194;-85
2022/01/01 10:46:11;;;;;;;12.27;7.30;;;9.20;99.90;;;;;;4860345;29;20225;-84
2022/01/01 10:51:04;;;;;;;12.00;6.90;;;;;;;;;;4860021;29;20283;-84
2022/01/01 10:53:30;;;;;;;8.77;5.90;;;;;;;;;;4860966;29;20684;-85
2022/01/01 10:56:01;;;;;;;13.13;6.90;;;9.50;99.90;;;;;;4859225;29;20317;-85
2022/01/01 10:58:27;;;;;;;11.93;6.37;;;;;;;;;;4861126;29;20194;-84
2022/01/01 11:01:00;;;;;;;8.83;6.20;;;9.30;99.90;;;;;;4860009;29;20209;-86
2022/01/01 11:03:27;;;;;;;8.63;5.97;;;;;;;;;;4861403;29;20206;-84
2022/01/01 11:06:07;;;;;;;9.13;5.87;;;9.20;99.90;;;;;;4861485;29;20179;-84
2022/01/01 11:08:35;;;;;;;9.63;6.43;;;9.20;99.90;;;;;;4861433;29;20707;-83
2022/01/01 11:11:02;;;;;;;8.73;5.27;;;9.20;99.90;;;;;;4867816;29;20191;-85
2022/01/01 11:13:28;;;;;;;7.00;4.90;;;;;;;;;;4879594;29;20278;-86
2022/01/01 11:15:54;;;;;;;11.13;6.93;;;;;;;;;;4882389;29;20174;-85
2022/01/01 11:18:22;;;;;;;8.10;5.37;;;9.10;99.90;;;;;;4877207;29;20211;-85
2022/01/01 11:20:49;;;;;;;8.93;5.20;;;9.10;99.90;;;;;;4869265;29;20175;-85
2022/01/01 11:23:15;;;;;;;5.37;4.60;;;9.10;99.90;;;;;;4889189;29;20204;-87
2022/01/01 11:25:41;;;;;;;6.80;4.27;;;;;;;;;;4879311;29;20203;-86
2022/01/01 11:28:11;;;;;;;8.13;5.23;;;9.10;99.90;;;;;;4882683;29;20178;-85
2022/01/01 11:30:42;;;;;;;7.07;4.80;;;9.20;99.90;;;;;;4874003;29;20195;-85
2022/01/01 11:33:11;;;;;;;7.87;5.33;;;9.20;99.90;;;;;;4878184;29;20199;-84
2022/01/01 11:35:56;;;;;;;6.03;4.10;;;9.40;99.90;;;;;;4874190;29;20187;-91
2022/01/01 11:38:24;;;;;;;4.07;3.20;;;9.20;99.90;;;;;;4882182;29;20276;-90
2022/01/01 11:40:59;;;;;;;8.63;4.93;;;8.80;99.90;;;;;;4884838;29;20194;-89
2022/01/01 11:43:46;;;;;;;7.07;4.50;;;9.60;99.90;;;;;;4880144;29;20194;-85
2022/01/01 11:46:35;;;;;;;6.80;4.83;;;;;;;;;;4863661;29;20187;-85
2022/01/01 11:49:03;;;;;;;5.83;5.13;;;9.30;99.90;;;;;;4853099;29;20187;-86
2022/01/01 11:51:52;;;;;;;9.67;5.63;;;9.20;99.90;;;;;;4859160;29;20278;-85
2022/01/01 11:54:25;;;;;;;6.20;4.13;;;9.30;99.90;;;;;;4854562;29;20269;-84
2022/01/01 11:56:51;;;;;;;6.03;4.40;;;;;;;;;;4858862;29;20188;-86
2022/01/01 11:59:20;;;;;;;7.00;4.53;;;9.30;99.90;;;;;;4860035;29;20553;-87
2022/01/01 12:01:47;;;;;;;5.33;4.30;;;;;;;;;;4862413;29;20194;-86
2022/01/01 12:04:40;;;;;;;5.57;4.30;;;9.30;99.90;;;;;;4852327;29;20191;-85
2022/01/01 12:07:30;;;;;;;8.83;5.43;;;8.70;99.90;;;;;;4855816;29;20210;-84
2022/01/01 12:09:55;;;;;;;8.63;5.57;;;;;;;;;;4846480;29;20195;-85
2022/01/01 12:12:46;;;;;;;8.57;5.40;;;9.40;99.90;;;;;;4858454;29;20534;-86
2022/01/01 12:15:36;;;;;;;8.20;4.83;;;9.70;99.90;;;;;;4863270;29;20715;-86
2022/01/01 12:18:17;;;;;;;7.00;4.23;;;9.40;99.90;;;;;;4862114;29;20257;-87
2022/01/01 12:20:52;;;;;;;8.23;5.70;;;9.40;99.90;;;;;;4858963;29;20179;-88
2022/01/01 12:23:23;;;;;;;8.47;5.20;;;9.40;99.90;;;;;;4860143;29;20779;-88
2022/01/01 12:25:53;;;;;;;7.33;4.97;;;9.40;99.90;;;;;;4860677;29;20186;-87
2022/01/01 12:28:26;;;;;;;10.33;6.97;;;9.40;99.90;;;;;;4857577;29;20190;-87
2022/01/01 12:30:52;;;;;;;12.27;8.27;;;;;;;;;;4855214;29;20178;-88
2022/01/01 12:33:26;;;;;;;13.23;7.03;;;9.40;99.90;;;;;;4860257;29;20226;-86
2022/01/01 12:35:58;;;;;;;11.00;6.90;;;9.40;99.90;;;;;;4854334;29;20230;-89
2022/01/01 12:38:29;;;;;;;11.67;6.70;;;9.40;99.90;;;;;;4856018;29;20384;-87
2022/01/01 12:41:07;;;;;;;9.77;6.17;;;9.40;99.90;;;;;;4878812;29;20194;-88
2022/01/01 12:43:41;;;;;;;10.30;6.53;;;9.40;99.90;;;;;;4860454;29;20224;-87
2022/01/01 12:46:08;;;;;;;9.73;7.17;;;9.40;99.90;;;;;;4868046;29;20272;-88
2022/01/01 12:48:34;;;;;;;11.57;7.10;;;;;;;;;;4851121;29;20201;-88
2022/01/01 12:51:02;;;;;;;10.50;7.17;;;;;;;;;;4859957;29;20203;-85
2022/01/01 12:53:29;;;;;;;13.73;7.13;;;9.40;99.90;;;;;;4865915;29;20265;-89
2022/01/01 12:56:05;;;;;;;11.30;6.77;;;;;;;;;;4864834;29;20285;-89
2022/01/01 12:58:36;;;;;;;12.40;7.63;;;9.50;99.90;;;;;;4862194;29;20198;-86
2022/01/01 13:01:14;;;;;;;12.47;7.43;;;9.50;99.90;;;;;;4866487;29;20202;-88
2022/01/01 13:03:43;;;;;;;10.47;6.87;;;9.40;99.90;;;;;;4860037;29;20277;-87
2022/01/01 13:06:10;;;;;;;11.57;7.40;;;;;;;;;;4863443;29;20203;-88
2022/01/01 13:08:42;;;;;;;10.60;7.20;;;9.80;99.90;;;;;;4863556;29;20186;-85
2022/01/01 13:11:09;;;;;;;10.13;7.03;;;9.40;99.90;;;;;;4863991;29;20245;-86
2022/01/01 13:13:35;;;;;;;13.63;7.30;;;;;;;;;;4850940;29;20305;-88
2022/01/01 13:16:01;;;;;;;11.10;7.23;;;;;;;;;;4870457;29;20199;-87
2022/01/01 13:18:28;;;;;;;13.43;7.90;;;;;;;;;;4862639;29;20186;-88
2022/01/01 13:20:55;;;;;;;15.20;8.50;;;9.40;99.90;;;;;;4859802;29;20195;-88
2022/01/01 13:23:24;;;;;;;11.60;7.10;;;9.40;99.90;;;;;;4859663;29;20636;-86
2022/01/01 13:25:55;;;;;;;12.47;8.03;;;9.40;99.90;;;;;;4863622;29;20187;-90
2022/01/01 13:28:25;;;;;;;13.13;8.23;;;9.00;99.90;;;;;;4863914;29;20201;-88
2022/01/01 13:30:52;;;;;;;12.87;7.63;;;9.20;99.90;;;;;;4853835;29;20553;-87
2022/01/01 13:33:19;;;;;;;14.37;8.40;;;;;;;;;;4870440;29;20263;-86
2022/01/01 13:35:49;;;;;;;12.67;7.97;;;9.20;99.90;;;;;;4857523;29;20210;-86
2022/01/01 13:38:16;;;;;;;13.43;8.30;;;9.10;99.90;;;;;;4871436;29;20250;-87
2022/01/01 13:40:57;;;;;;;13.20;8.60;;;9.00;99.90;;;;;;4862853;29;20187;-88
2022/01/01 13:43:30;;;;;;;13.00;9.23;;;9.80;99.90;;;;;;4861730;29;20198;-87
2022/01/01 13:46:10;;;;;;;13.43;8.73;;;8.90;99.90;;;;;;4860789;29;20202;-88
2022/01/01 13:48:47;;;;;;;15.13;9.27;;;9.30;99.90;;;;;;4852942;29;20337;-85
2022/01/01 13:51:26;;;;;;;14.43;7.90;;;;;;;;;;4846524;29;20213;-87
2022/01/01 13:57:09;;;;;;;14.93;8.50;;;9.40;99.90;;;;;;4838727;29;20254;-86